CFB Cold Lake
CYOD : now visible

Airfield :











YOU CAN JOIN US ON...

 
LOGIN :

Register | Disclaimer

   EN    FR    IT 

 









Legend :    VFR   Marginal VFR   IFR   Intensive IFR   Very Intensive IFR
Visi :
Ceiling :
>= 8 km
>= 3000ft
5 to 8 km
1000 to 3000 ft
1500m to 5 km
500 to 1000 ft
800 to 1500m
200 to 500 ft
< 800m
< 200 ft
Symbols :   Thunderstorms  Fog  Heavy snow  Heavy precipitations  Wind > 20 kt






- Airport Elevation : 1775 ft
- IATA code : YOD


CYOD - CFB Cold Lake

CURRENT METAR :
  • 030800Z 11009KT 15SM SCT120 18/14 A2997 RMK AC3 SLP145

EXPIRED METARs :
  • 030700Z 13005KT 15SM FEW150 SCT250 18/14 A2998 RMK AC1CI2 SLP150
  • 030600Z 13009KT 15SM SCT250 20/14 A2998 RMK CI3 SLP150

TAF TAF CYOD
Valid from the 03 at 06:00 until the 04 at 06:00 UTC


030530Z 0306/0406 13008KT P6SM SCT250
FM030900 14008KT P6SM FEW100
BECMG 0315/0317 14010G20KT
FM032200 14012G22KT P6SM SCT060
FM040200 24012KT P6SM BKN040
PROB40 0402/0406 VRB20G30KT 2SM TSRA BR OVC040CB RMK NXT FCST BY 031200Z
CZEG FIR / North America



MET'MAP, your aeronautical weather chart ! - Copyright ORBIFLY December 2007 - Disclaimer

ORBIFLY MET'MAP TEAM :

Programming & Development : Alexandra Zaïnal
Concept & original design : Baudouin d'Aumeries
Assistance for programming : Marc-Olivier Méhu
Technical & hardware support : Manuel Goepfert

Contact : metmap@orbifly.com




SOURCES & CREDITS :

   NOAA       Earth
Advisory